sensor_id;sensor_type;location;lat;lon;timestamp;pressure;altitude;pressure_sealevel;temperature;humidity
54262;BME280;40174;52.364;6.452;2024-02-21T00:01:15;101822.34;;;7.87;100.00
54262;BME280;40174;52.364;6.452;2024-02-21T00:03:43;101814.53;;;7.85;100.00
54262;BME280;40174;52.364;6.452;2024-02-21T00:06:09;101814.78;;;7.81;100.00
54262;BME280;40174;52.364;6.452;2024-02-21T00:08:36;101808.75;;;7.79;100.00
54262;BME280;40174;52.364;6.452;2024-02-21T00:11:02;101817.84;;;7.89;100.00
54262;BME280;40174;52.364;6.452;2024-02-21T00:13:29;101814.69;;;7.82;100.00
54262;BME280;40174;52.364;6.452;2024-02-21T00:15:56;101815.56;;;7.83;100.00
54262;BME280;40174;52.364;6.452;2024-02-21T00:18:22;101820.13;;;7.79;100.00
54262;BME280;40174;52.364;6.452;2024-02-21T00:20:50;101810.34;;;7.81;100.00
54262;BME280;40174;52.364;6.452;2024-02-21T00:23:18;101804.25;;;7.81;100.00
54262;BME280;40174;52.364;6.452;2024-02-21T00:25:45;101814.59;;;7.84;100.00
54262;BME280;40174;52.364;6.452;2024-02-21T00:28:11;101812.03;;;7.82;100.00
54262;BME280;40174;52.364;6.452;2024-02-21T00:30:38;101820.63;;;7.86;100.00
54262;BME280;40174;52.364;6.452;2024-02-21T00:33:05;101814.69;;;7.82;100.00
54262;BME280;40174;52.364;6.452;2024-02-21T00:35:31;101818.00;;;7.86;100.00
54262;BME280;40174;52.364;6.452;2024-02-21T00:37:59;101813.75;;;7.83;100.00
54262;BME280;40174;52.364;6.452;2024-02-21T00:40:26;101796.19;;;7.84;100.00
54262;BME280;40174;52.364;6.452;2024-02-21T00:42:52;101795.16;;;7.86;100.00
54262;BME280;40174;52.364;6.452;2024-02-21T00:45:19;101804.00;;;7.85;100.00
54262;BME280;40174;52.364;6.452;2024-02-21T00:47:45;101798.66;;;7.87;100.00
54262;BME280;40174;52.364;6.452;2024-02-21T00:50:12;101795.09;;;7.88;100.00
54262;BME280;40174;52.364;6.452;2024-02-21T00:52:39;101777.81;;;7.82;100.00
54262;BME280;40174;52.364;6.452;2024-02-21T00:55:08;101772.56;;;7.82;100.00
54262;BME280;40174;52.364;6.452;2024-02-21T00:57:35;101776.22;;;7.80;100.00
54262;BME280;40174;52.364;6.452;2024-02-21T01:00:02;101773.50;;;7.81;100.00
54262;BME280;40174;52.364;6.452;2024-02-21T01:02:28;101768.31;;;7.80;100.00
54262;BME280;40174;52.364;6.452;2024-02-21T01:04:56;101770.88;;;7.81;100.00
54262;BME280;40174;52.364;6.452;2024-02-21T01:07:23;101758.50;;;7.83;100.00
54262;BME280;40174;52.364;6.452;2024-02-21T01:09:50;101757.41;;;7.87;100.00
54262;BME280;40174;52.364;6.452;2024-02-21T01:12:18;101755.53;;;7.89;100.00
54262;BME280;40174;52.364;6.452;2024-02-21T01:14:45;101756.44;;;7.88;100.00
54262;BME280;40174;52.364;6.452;2024-02-21T01:17:12;101755.69;;;7.86;100.00
54262;BME280;40174;52.364;6.452;2024-02-21T01:19:39;101740.66;;;7.88;100.00
54262;BME280;40174;52.364;6.452;2024-02-21T01:22:06;101752.22;;;7.86;100.00
54262;BME280;40174;52.364;6.452;2024-02-21T01:24:33;101738.97;;;7.87;100.00
54262;BME280;40174;52.364;6.452;2024-02-21T01:26:59;101747.88;;;7.85;100.00
54262;BME280;40174;52.364;6.452;2024-02-21T01:29:27;101748.97;;;7.81;100.00
54262;BME280;40174;52.364;6.452;2024-02-21T01:31:54;101749.66;;;7.84;100.00
54262;BME280;40174;52.364;6.452;2024-02-21T01:34:20;101756.63;;;7.85;100.00
54262;BME280;40174;52.364;6.452;2024-02-21T01:36:47;101751.28;;;7.87;100.00
54262;BME280;40174;52.364;6.452;2024-02-21T01:39:14;101751.28;;;7.87;100.00
54262;BME280;40174;52.364;6.452;2024-02-21T01:41:40;101748.66;;;7.87;100.00
54262;BME280;40174;52.364;6.452;2024-02-21T01:44:07;101745.00;;;7.89;100.00
54262;BME280;40174;52.364;6.452;2024-02-21T01:46:34;101719.44;;;7.91;100.00
54262;BME280;40174;52.364;6.452;2024-02-21T01:49:01;101699.50;;;7.87;100.00
54262;BME280;40174;52.364;6.452;2024-02-21T01:51:28;101703.03;;;7.86;100.00
54262;BME280;40174;52.364;6.452;2024-02-21T01:53:55;101690.91;;;7.84;100.00
54262;BME280;40174;52.364;6.452;2024-02-21T01:56:23;101685.72;;;7.82;100.00
54262;BME280;40174;52.364;6.452;2024-02-21T01:58:50;101697.53;;;7.91;100.00
54262;BME280;40174;52.364;6.452;2024-02-21T02:01:17;101680.22;;;7.87;100.00
54262;BME280;40174;52.364;6.452;2024-02-21T02:03:46;101688.59;;;7.94;100.00
54262;BME280;40174;52.364;6.452;2024-02-21T02:06:14;101682.75;;;7.88;100.00
54262;BME280;40174;52.364;6.452;2024-02-21T02:08:41;101684.34;;;7.91;100.00
54262;BME280;40174;52.364;6.452;2024-02-21T02:11:08;101683.69;;;7.87;100.00
54262;BME280;40174;52.364;6.452;2024-02-21T02:13:34;101682.94;;;7.85;100.00
54262;BME280;40174;52.364;6.452;2024-02-21T02:16:01;101672.66;;;7.97;100.00
54262;BME280;40174;52.364;6.452;2024-02-21T02:18:29;101673.94;;;7.89;100.00
54262;BME280;40174;52.364;6.452;2024-02-21T02:20:57;101674.44;;;7.96;100.00
54262;BME280;40174;52.364;6.452;2024-02-21T02:23:25;101680.56;;;7.97;100.00
54262;BME280;40174;52.364;6.452;2024-02-21T02:25:52;101670.16;;;7.94;100.00
54262;BME280;40174;52.364;6.452;2024-02-21T02:28:19;101674.00;;;7.88;100.00
54262;BME280;40174;52.364;6.452;2024-02-21T02:30:46;101666.88;;;7.90;100.00
54262;BME280;40174;52.364;6.452;2024-02-21T02:33:12;101676.47;;;7.91;100.00
54262;BME280;40174;52.364;6.452;2024-02-21T02:35:39;101667.38;;;7.97;100.00
54262;BME280;40174;52.364;6.452;2024-02-21T02:38:06;101665.84;;;7.93;100.00
54262;BME280;40174;52.364;6.452;2024-02-21T02:40:35;101665.09;;;7.90;100.00
54262;BME280;40174;52.364;6.452;2024-02-21T02:43:02;101675.28;;;7.97;100.00
54262;BME280;40174;52.364;6.452;2024-02-21T02:45:29;101680.38;;;8.00;100.00
54262;BME280;40174;52.364;6.452;2024-02-21T02:47:55;101677.47;;;8.04;100.00
54262;BME280;40174;52.364;6.452;2024-02-21T02:50:22;101675.88;;;8.02;100.00
54262;BME280;40174;52.364;6.452;2024-02-21T02:52:49;101678.44;;;8.03;100.00
54262;BME280;40174;52.364;6.452;2024-02-21T02:55:16;101671.63;;;7.99;100.00
54262;BME280;40174;52.364;6.452;2024-02-21T02:57:44;101670.59;;;8.02;100.00
54262;BME280;40174;52.364;6.452;2024-02-21T03:00:12;101670.59;;;8.02;100.00
54262;BME280;40174;52.364;6.452;2024-02-21T03:02:41;101667.13;;;8.01;100.00
54262;BME280;40174;52.364;6.452;2024-02-21T03:05:13;101668.53;;;8.07;100.00
54262;BME280;40174;52.364;6.452;2024-02-21T03:07:40;101668.91;;;8.01;100.00
54262;BME280;40174;52.364;6.452;2024-02-21T03:10:07;101663.22;;;8.08;100.00
54262;BME280;40174;52.364;6.452;2024-02-21T03:12:34;101666.16;;;8.18;100.00
54262;BME280;40174;52.364;6.452;2024-02-21T03:15:03;101665.56;;;8.13;100.00
54262;BME280;40174;52.364;6.452;2024-02-21T03:17:30;101652.84;;;8.05;100.00
54262;BME280;40174;52.364;6.452;2024-02-21T03:19:57;101636.44;;;8.00;100.00
54262;BME280;40174;52.364;6.452;2024-02-21T03:22:24;101646.72;;;8.05;100.00
54262;BME280;40174;52.364;6.452;2024-02-21T03:24:51;101650.22;;;8.05;100.00
54262;BME280;40174;52.364;6.452;2024-02-21T03:27:17;101644.34;;;8.00;100.00
54262;BME280;40174;52.364;6.452;2024-02-21T03:29:44;101632.91;;;8.01;100.00
54262;BME280;40174;52.364;6.452;2024-02-21T03:32:12;101626.88;;;7.99;100.00
54262;BME280;40174;52.364;6.452;2024-02-21T03:34:38;101633.31;;;7.94;100.00
54262;BME280;40174;52.364;6.452;2024-02-21T03:37:05;101642.84;;;7.96;100.00
54262;BME280;40174;52.364;6.452;2024-02-21T03:39:31;101635.47;;;8.03;100.00
54262;BME280;40174;52.364;6.452;2024-02-21T03:41:58;101643.94;;;8.08;100.00
54262;BME280;40174;52.364;6.452;2024-02-21T03:44:29;101634.50;;;8.04;100.00
54262;BME280;40174;52.364;6.452;2024-02-21T03:46:56;101646.91;;;8.02;100.00
54262;BME280;40174;52.364;6.452;2024-02-21T03:49:24;101633.94;;;7.99;100.00
54262;BME280;40174;52.364;6.452;2024-02-21T03:51:50;101625.25;;;7.97;100.00
54262;BME280;40174;52.364;6.452;2024-02-21T03:54:17;101625.41;;;7.94;100.00
54262;BME280;40174;52.364;6.452;2024-02-21T03:56:44;101614.72;;;7.97;100.00
54262;BME280;40174;52.364;6.452;2024-02-21T03:59:13;101611.41;;;7.93;100.00
54262;BME280;40174;52.364;6.452;2024-02-21T04:01:39;101621.69;;;7.98;100.00
54262;BME280;40174;52.364;6.452;2024-02-21T04:04:06;101617.03;;;8.03;100.00
54262;BME280;40174;52.364;6.452;2024-02-21T04:06:34;101613.91;;;7.96;100.00
54262;BME280;40174;52.364;6.452;2024-02-21T04:09:01;101611.34;;;7.95;100.00
54262;BME280;40174;52.364;6.452;2024-02-21T04:11:27;101606.53;;;7.87;100.00
54262;BME280;40174;52.364;6.452;2024-02-21T04:13:54;101606.34;;;7.90;100.00
54262;BME280;40174;52.364;6.452;2024-02-21T04:16:20;101607.25;;;7.89;100.00
54262;BME280;40174;52.364;6.452;2024-02-21T04:18:47;101599.28;;;7.90;100.00
54262;BME280;40174;52.364;6.452;2024-02-21T04:21:17;101601.84;;;7.92;100.00
54262;BME280;40174;52.364;6.452;2024-02-21T04:23:45;101607.94;;;7.93;100.00
54262;BME280;40174;52.364;6.452;2024-02-21T04:26:11;101611.06;;;7.99;100.00
54262;BME280;40174;52.364;6.452;2024-02-21T04:28:38;101600.34;;;8.02;100.00
54262;BME280;40174;52.364;6.452;2024-02-21T04:31:05;101603.44;;;7.95;100.00
54262;BME280;40174;52.364;6.452;2024-02-21T04:33:32;101602.16;;;8.02;100.00
54262;BME280;40174;52.364;6.452;2024-02-21T04:35:58;101602.50;;;7.96;100.00
54262;BME280;40174;52.364;6.452;2024-02-21T04:38:26;101601.56;;;7.97;100.00
54262;BME280;40174;52.364;6.452;2024-02-21T04:40:55;101592.22;;;7.91;100.00
54262;BME280;40174;52.364;6.452;2024-02-21T04:43:24;101582.84;;;7.87;100.00
54262;BME280;40174;52.364;6.452;2024-02-21T04:45:50;101582.06;;;7.85;100.00
54262;BME280;40174;52.364;6.452;2024-02-21T04:48:19;101592.41;;;7.88;100.00
54262;BME280;40174;52.364;6.452;2024-02-21T04:50:45;101585.19;;;7.91;100.00
54262;BME280;40174;52.364;6.452;2024-02-21T04:53:12;101577.47;;;7.88;100.00
54262;BME280;40174;52.364;6.452;2024-02-21T04:55:39;101573.16;;;7.87;100.00
54262;BME280;40174;52.364;6.452;2024-02-21T04:58:07;101574.06;;;7.86;100.00
54262;BME280;40174;52.364;6.452;2024-02-21T05:00:34;101568.72;;;7.88;100.00
54262;BME280;40174;52.364;6.452;2024-02-21T05:03:01;101563.66;;;7.85;100.00
54262;BME280;40174;52.364;6.452;2024-02-21T05:05:28;101551.41;;;7.84;100.00
54262;BME280;40174;52.364;6.452;2024-02-21T05:07:54;101551.59;;;7.81;100.00
54262;BME280;40174;52.364;6.452;2024-02-21T05:10:21;101548.78;;;7.84;100.00
54262;BME280;40174;52.364;6.452;2024-02-21T05:12:47;101539.28;;;7.81;100.00
54262;BME280;40174;52.364;6.452;2024-02-21T05:15:16;101536.63;;;7.81;100.00
54262;BME280;40174;52.364;6.452;2024-02-21T05:17:43;101554.78;;;7.86;100.00
54262;BME280;40174;52.364;6.452;2024-02-21T05:20:10;101538.44;;;7.81;100.00
54262;BME280;40174;52.364;6.452;2024-02-21T05:22:37;101548.78;;;7.84;100.00
54262;BME280;40174;52.364;6.452;2024-02-21T05:25:04;101551.59;;;7.81;100.00
54262;BME280;40174;52.364;6.452;2024-02-21T05:27:31;101560.59;;;7.77;100.00
54262;BME280;40174;52.364;6.452;2024-02-21T05:29:57;101544.03;;;7.75;100.00
54262;BME280;40174;52.364;6.452;2024-02-21T05:32:26;101542.50;;;7.70;100.00
54262;BME280;40174;52.364;6.452;2024-02-21T05:34:53;101533.59;;;7.73;100.00
54262;BME280;40174;52.364;6.452;2024-02-21T05:37:20;101530.19;;;7.71;100.00
54262;BME280;40174;52.364;6.452;2024-02-21T05:39:47;101517.16;;;7.69;100.00
54262;BME280;40174;52.364;6.452;2024-02-21T05:42:14;101531.84;;;7.74;100.00
54262;BME280;40174;52.364;6.452;2024-02-21T05:44:40;101527.69;;;7.69;100.00
54262;BME280;40174;52.364;6.452;2024-02-21T05:47:07;101528.84;;;7.64;100.00
54262;BME280;40174;52.364;6.452;2024-02-21T05:49:36;101527.25;;;7.61;100.00
54262;BME280;40174;52.364;6.452;2024-02-21T05:52:03;101522.81;;;7.62;100.00
54262;BME280;40174;52.364;6.452;2024-02-21T05:54:31;101514.50;;;7.69;100.00
54262;BME280;40174;52.364;6.452;2024-02-21T05:56:57;101518.25;;;7.65;100.00
54262;BME280;40174;52.364;6.452;2024-02-21T05:59:24;101511.19;;;7.66;100.00
54262;BME280;40174;52.364;6.452;2024-02-21T06:01:55;101513.19;;;7.62;100.00
54262;BME280;40174;52.364;6.452;2024-02-21T06:04:23;101504.34;;;7.63;100.00
54262;BME280;40174;52.364;6.452;2024-02-21T06:06:51;101506.13;;;7.63;100.00
54262;BME280;40174;52.364;6.452;2024-02-21T06:09:17;101491.75;;;7.68;100.00
54262;BME280;40174;52.364;6.452;2024-02-21T06:11:44;101494.38;;;7.68;100.00
54262;BME280;40174;52.364;6.452;2024-02-21T06:14:11;101489.13;;;7.68;100.00
54262;BME280;40174;52.364;6.452;2024-02-21T06:16:38;101477.34;;;7.60;100.00
54262;BME280;40174;52.364;6.452;2024-02-21T06:19:04;101485.16;;;7.61;100.00
54262;BME280;40174;52.364;6.452;2024-02-21T06:21:31;101493.53;;;7.68;100.00
54262;BME280;40174;52.364;6.452;2024-02-21T06:23:59;101479.06;;;7.61;100.00
54262;BME280;40174;52.364;6.452;2024-02-21T06:26:26;101496.25;;;7.66;100.00
54262;BME280;40174;52.364;6.452;2024-02-21T06:28:52;101488.56;;;7.63;100.00
54262;BME280;40174;52.364;6.452;2024-02-21T06:31:19;101484.88;;;7.66;100.00
54262;BME280;40174;52.364;6.452;2024-02-21T06:33:45;101477.25;;;7.61;100.00
54262;BME280;40174;52.364;6.452;2024-02-21T06:36:12;101483.09;;;7.66;100.00
54262;BME280;40174;52.364;6.452;2024-02-21T06:38:39;101482.44;;;7.63;100.00
54262;BME280;40174;52.364;6.452;2024-02-21T06:41:14;101479.97;;;7.60;100.00
54262;BME280;40174;52.364;6.452;2024-02-21T06:43:41;101483.38;;;7.62;100.00
54262;BME280;40174;52.364;6.452;2024-02-21T06:46:07;101478.09;;;7.62;100.00
54262;BME280;40174;52.364;6.452;2024-02-21T06:48:34;101483.38;;;7.62;100.00
54262;BME280;40174;52.364;6.452;2024-02-21T06:51:01;101492.03;;;7.64;100.00
54262;BME280;40174;52.364;6.452;2024-02-21T06:53:28;101491.25;;;7.62;100.00
54262;BME280;40174;52.364;6.452;2024-02-21T06:55:55;101490.59;;;7.58;100.00
54262;BME280;40174;52.364;6.452;2024-02-21T06:58:23;101492.97;;;7.63;100.00
54262;BME280;40174;52.364;6.452;2024-02-21T07:00:49;101486.00;;;7.62;100.00
54262;BME280;40174;52.364;6.452;2024-02-21T07:03:16;101481.75;;;7.59;100.00
54262;BME280;40174;52.364;6.452;2024-02-21T07:05:43;101481.25;;;7.53;100.00
54262;BME280;40174;52.364;6.452;2024-02-21T07:08:09;101487.22;;;7.56;100.00
54262;BME280;40174;52.364;6.452;2024-02-21T07:10:36;101479.31;;;7.56;100.00
54262;BME280;40174;52.364;6.452;2024-02-21T07:13:03;101482.59;;;7.60;100.00
54262;BME280;40174;52.364;6.452;2024-02-21T07:15:31;101480.09;;;7.58;100.00
54262;BME280;40174;52.364;6.452;2024-02-21T07:17:58;101479.41;;;7.55;100.00
54262;BME280;40174;52.364;6.452;2024-02-21T07:20:25;101483.63;;;7.57;100.00
54262;BME280;40174;52.364;6.452;2024-02-21T07:22:51;101479.13;;;7.59;100.00
54262;BME280;40174;52.364;6.452;2024-02-21T07:25:18;101474.22;;;7.53;100.00
54262;BME280;40174;52.364;6.452;2024-02-21T07:27:45;101479.47;;;7.53;100.00
54262;BME280;40174;52.364;6.452;2024-02-21T07:30:12;101473.09;;;7.57;100.00
54262;BME280;40174;52.364;6.452;2024-02-21T07:32:40;101462.44;;;7.60;100.00
54262;BME280;40174;52.364;6.452;2024-02-21T07:35:07;101457.06;;;7.62;100.00
54262;BME280;40174;52.364;6.452;2024-02-21T07:37:36;101458.50;;;7.67;100.00
54262;BME280;40174;52.364;6.452;2024-02-21T07:40:03;101460.09;;;7.70;100.00
54262;BME280;40174;52.364;6.452;2024-02-21T07:42:30;101460.38;;;7.65;100.00
54262;BME280;40174;52.364;6.452;2024-02-21T07:44:57;101458.78;;;7.63;100.00
54262;BME280;40174;52.364;6.452;2024-02-21T07:47:23;101458.78;;;7.63;100.00
54262;BME280;40174;52.364;6.452;2024-02-21T07:49:51;101459.53;;;7.65;100.00
54262;BME280;40174;52.364;6.452;2024-02-21T07:52:18;101449.00;;;7.65;100.00
54262;BME280;40174;52.364;6.452;2024-02-21T07:54:44;101454.00;;;7.69;100.00
54262;BME280;40174;52.364;6.452;2024-02-21T07:57:11;101440.00;;;7.69;100.00
54262;BME280;40174;52.364;6.452;2024-02-21T07:59:37;101427.75;;;7.68;100.00
54262;BME280;40174;52.364;6.452;2024-02-21T08:02:05;101436.41;;;7.70;100.00
54262;BME280;40174;52.364;6.452;2024-02-21T08:04:32;101431.84;;;7.74;100.00
54262;BME280;40174;52.364;6.452;2024-02-21T08:07:00;101417.91;;;7.72;100.00
54262;BME280;40174;52.364;6.452;2024-02-21T08:09:29;101418.94;;;7.69;100.00
54262;BME280;40174;52.364;6.452;2024-02-21T08:11:56;101408.22;;;7.72;100.00
54262;BME280;40174;52.364;6.452;2024-02-21T08:14:23;101410.66;;;7.75;100.00
54262;BME280;40174;52.364;6.452;2024-02-21T08:16:50;101408.53;;;7.82;100.00
54262;BME280;40174;52.364;6.452;2024-02-21T08:19:18;101404.56;;;7.75;100.00
54262;BME280;40174;52.364;6.452;2024-02-21T08:21:45;101394.44;;;7.83;100.00
54262;BME280;40174;52.364;6.452;2024-02-21T08:24:14;101387.81;;;7.76;100.00
54262;BME280;40174;52.364;6.452;2024-02-21T08:26:41;101397.34;;;7.78;100.00
54262;BME280;40174;52.364;6.452;2024-02-21T08:29:07;101386.81;;;7.78;100.00
54262;BME280;40174;52.364;6.452;2024-02-21T08:31:34;101403.19;;;7.83;100.00
54262;BME280;40174;52.364;6.452;2024-02-21T08:34:01;101393.50;;;7.84;100.00
54262;BME280;40174;52.364;6.452;2024-02-21T08:36:29;101403.19;;;7.83;100.00
54262;BME280;40174;52.364;6.452;2024-02-21T08:38:56;101398.69;;;7.85;100.00
54262;BME280;40174;52.364;6.452;2024-02-21T08:41:24;101390.88;;;7.84;100.00
54262;BME280;40174;52.364;6.452;2024-02-21T08:43:51;101380.81;;;7.90;100.00
54262;BME280;40174;52.364;6.452;2024-02-21T08:46:19;101372.28;;;7.87;100.00
54262;BME280;40174;52.364;6.452;2024-02-21T08:48:46;101372.72;;;7.94;100.00
54262;BME280;40174;52.364;6.452;2024-02-21T08:51:13;101370.09;;;7.94;100.00
54262;BME280;40174;52.364;6.452;2024-02-21T08:53:39;101362.94;;;7.96;100.00
54262;BME280;40174;52.364;6.452;2024-02-21T08:56:06;101361.94;;;7.98;100.00
54262;BME280;40174;52.364;6.452;2024-02-21T08:58:35;101360.16;;;7.99;100.00
54262;BME280;40174;52.364;6.452;2024-02-21T09:01:03;101359.94;;;8.02;100.00
54262;BME280;40174;52.364;6.452;2024-02-21T09:03:31;101359.03;;;8.03;100.00
54262;BME280;40174;52.364;6.452;2024-02-21T09:05:58;101364.19;;;8.04;100.00
54262;BME280;40174;52.364;6.452;2024-02-21T09:08:24;101350.94;;;8.06;100.00
54262;BME280;40174;52.364;6.452;2024-02-21T09:10:51;101355.16;;;8.08;100.00
54262;BME280;40174;52.364;6.452;2024-02-21T09:13:18;101355.16;;;8.08;100.00
54262;BME280;40174;52.364;6.452;2024-02-21T09:15:47;101343.78;;;8.08;100.00
54262;BME280;40174;52.364;6.452;2024-02-21T09:18:14;101353.34;;;8.09;100.00
54262;BME280;40174;52.364;6.452;2024-02-21T09:20:40;101351.31;;;8.14;100.00
54262;BME280;40174;52.364;6.452;2024-02-21T09:23:07;101344.41;;;8.11;100.00
54262;BME280;40174;52.364;6.452;2024-02-21T09:25:33;101353.75;;;8.17;100.00
54262;BME280;40174;52.364;6.452;2024-02-21T09:28:01;101359.47;;;8.24;100.00
54262;BME280;40174;52.364;6.452;2024-02-21T09:30:28;101348.09;;;8.23;100.00
54262;BME280;40174;52.364;6.452;2024-02-21T09:32:56;101347.34;;;8.21;100.00
54262;BME280;40174;52.364;6.452;2024-02-21T09:35:24;101348.56;;;8.30;100.00
54262;BME280;40174;52.364;6.452;2024-02-21T09:37:52;101340.09;;;8.25;100.00
54262;BME280;40174;52.364;6.452;2024-02-21T09:40:18;101339.06;;;8.27;100.00
54262;BME280;40174;52.364;6.452;2024-02-21T09:42:47;101329.47;;;8.26;100.00
54262;BME280;40174;52.364;6.452;2024-02-21T09:45:19;101324.88;;;8.30;100.00
54262;BME280;40174;52.364;6.452;2024-02-21T09:47:57;101323.28;;;8.27;100.00
54262;BME280;40174;52.364;6.452;2024-02-21T09:50:30;101323.06;;;8.30;100.00
54262;BME280;40174;52.364;6.452;2024-02-21T09:52:58;101318.47;;;8.34;100.00
54262;BME280;40174;52.364;6.452;2024-02-21T09:55:27;101319.19;;;8.36;100.00
54262;BME280;40174;52.364;6.452;2024-02-21T09:57:58;101320.06;;;8.37;100.00
54262;BME280;40174;52.364;6.452;2024-02-21T10:00:25;101313.75;;;8.39;100.00
54262;BME280;40174;52.364;6.452;2024-02-21T10:02:52;101309.16;;;8.43;100.00
54262;BME280;40174;52.364;6.452;2024-02-21T10:05:20;101299.47;;;8.43;100.00
54262;BME280;40174;52.364;6.452;2024-02-21T10:07:50;101289.94;;;8.41;100.00
54262;BME280;40174;52.364;6.452;2024-02-21T10:10:18;101291.44;;;8.45;100.00
54262;BME280;40174;52.364;6.452;2024-02-21T10:12:49;101289.56;;;8.47;100.00
54262;BME280;40174;52.364;6.452;2024-02-21T10:15:20;101280.91;;;8.59;100.00
54262;BME280;40174;52.364;6.452;2024-02-21T10:17:47;101269.91;;;8.52;100.00
54262;BME280;40174;52.364;6.452;2024-02-21T10:20:13;101266.44;;;8.52;100.00
54262;BME280;40174;52.364;6.452;2024-02-21T10:22:43;101261.56;;;8.59;100.00
54262;BME280;40174;52.364;6.452;2024-02-21T10:25:10;101255.69;;;8.55;100.00
54262;BME280;40174;52.364;6.452;2024-02-21T10:27:37;101252.66;;;8.61;100.00
54262;BME280;40174;52.364;6.452;2024-02-21T10:30:07;101233.25;;;8.62;100.00
54262;BME280;40174;52.364;6.452;2024-02-21T10:32:34;101248.75;;;8.67;100.00
54262;BME280;40174;52.364;6.452;2024-02-21T10:35:01;101244.16;;;8.70;100.00
54262;BME280;40174;52.364;6.452;2024-02-21T10:37:30;101242.25;;;8.72;100.00
54262;BME280;40174;52.364;6.452;2024-02-21T10:39:58;101238.44;;;8.77;100.00
54262;BME280;40174;52.364;6.452;2024-02-21T10:42:29;101229.59;;;8.78;100.00
54262;BME280;40174;52.364;6.452;2024-02-21T10:45:00;101230.34;;;8.80;100.00
54262;BME280;40174;52.364;6.452;2024-02-21T10:47:30;101205.50;;;8.84;100.00
54262;BME280;40174;52.364;6.452;2024-02-21T10:50:02;101207.59;;;8.91;100.00
54262;BME280;40174;52.364;6.452;2024-02-21T10:52:35;101205.59;;;8.95;100.00
54262;BME280;40174;52.364;6.452;2024-02-21T10:55:10;101192.22;;;8.98;100.00
54262;BME280;40174;52.364;6.452;2024-02-21T10:57:38;101192.94;;;9.00;100.00
54262;BME280;40174;52.364;6.452;2024-02-21T11:00:06;101182.31;;;9.02;100.00
54262;BME280;40174;52.364;6.452;2024-02-21T11:02:36;101175.97;;;9.04;100.00
54262;BME280;40174;52.364;6.452;2024-02-21T11:05:03;101183.66;;;9.07;100.00
54262;BME280;40174;52.364;6.452;2024-02-21T11:07:31;101176.06;;;9.03;100.00
54262;BME280;40174;52.364;6.452;2024-02-21T11:09:58;101175.56;;;9.10;100.00
54262;BME280;40174;52.364;6.452;2024-02-21T11:12:26;101178.06;;;9.12;100.00
54262;BME280;40174;52.364;6.452;2024-02-21T11:15:03;101165.94;;;9.09;100.00
54262;BME280;40174;52.364;6.452;2024-02-21T11:17:30;101168.81;;;9.06;100.00
54262;BME280;40174;52.364;6.452;2024-02-21T11:19:57;101158.03;;;9.09;100.00
54262;BME280;40174;52.364;6.452;2024-02-21T11:22:26;101149.81;;;9.01;100.00
54262;BME280;40174;52.364;6.452;2024-02-21T11:25:06;101139.47;;;8.98;100.00
54262;BME280;40174;52.364;6.452;2024-02-21T11:27:35;101136.00;;;8.98;100.00
54262;BME280;40174;52.364;6.452;2024-02-21T11:30:04;101134.44;;;8.95;100.00
54262;BME280;40174;52.364;6.452;2024-02-21T11:32:31;101118.28;;;9.00;100.00
54262;BME280;40174;52.364;6.452;2024-02-21T11:34:59;101109.75;;;8.96;100.00
54262;BME280;40174;52.364;6.452;2024-02-21T11:37:27;101109.75;;;8.96;100.00
54262;BME280;40174;52.364;6.452;2024-02-21T11:39:54;101095.50;;;8.99;100.00
54262;BME280;40174;52.364;6.452;2024-02-21T11:42:21;101098.44;;;8.94;100.00
54262;BME280;40174;52.364;6.452;2024-02-21T11:44:49;101088.53;;;8.85;100.00
54262;BME280;40174;52.364;6.452;2024-02-21T11:47:16;101060.94;;;8.90;100.00
54262;BME280;40174;52.364;6.452;2024-02-21T11:49:44;101053.53;;;8.83;100.00
54262;BME280;40174;52.364;6.452;2024-02-21T11:52:12;101048.91;;;8.86;100.00
54262;BME280;40174;52.364;6.452;2024-02-21T11:54:41;101030.88;;;8.80;100.00
54262;BME280;40174;52.364;6.452;2024-02-21T11:57:07;101022.03;;;8.81;100.00
54262;BME280;40174;52.364;6.452;2024-02-21T11:59:34;101011.78;;;8.77;100.00
54262;BME280;40174;52.364;6.452;2024-02-21T12:02:03;101002.94;;;8.78;100.00
54262;BME280;40174;52.364;6.452;2024-02-21T12:04:30;101008.72;;;8.83;100.00
54262;BME280;40174;52.364;6.452;2024-02-21T12:06:57;101023.63;;;8.84;100.00
54262;BME280;40174;52.364;6.452;2024-02-21T12:09:24;101038.47;;;8.85;100.00
54262;BME280;40174;52.364;6.452;2024-02-21T12:11:57;101029.94;;;8.81;100.00
54262;BME280;40174;52.364;6.452;2024-02-21T12:14:25;101020.34;;;8.80;100.00
54262;BME280;40174;52.364;6.452;2024-02-21T12:16:52;101016.44;;;8.73;100.00
54262;BME280;40174;52.364;6.452;2024-02-21T12:19:20;101018.13;;;8.74;100.00
54262;BME280;40174;52.364;6.452;2024-02-21T12:21:48;101021.63;;;8.74;100.00
54262;BME280;40174;52.364;6.452;2024-02-21T12:24:17;101026.34;;;8.69;100.00
54262;BME280;40174;52.364;6.452;2024-02-21T12:26:45;101014.34;;;8.65;100.00
54262;BME280;40174;52.364;6.452;2024-02-21T12:29:12;101002.94;;;8.65;100.00
54262;BME280;40174;52.364;6.452;2024-02-21T12:31:39;100998.53;;;8.65;100.00
54262;BME280;40174;52.364;6.452;2024-02-21T12:34:05;100992.81;;;8.71;100.00
54262;BME280;40174;52.364;6.452;2024-02-21T12:36:36;100985.16;;;8.68;100.00
54262;BME280;40174;52.364;6.452;2024-02-21T12:39:07;100982.50;;;8.68;100.00
54262;BME280;40174;52.364;6.452;2024-02-21T12:41:35;100983.91;;;8.61;100.00
54262;BME280;40174;52.364;6.452;2024-02-21T12:44:03;100976.94;;;8.60;100.00
54262;BME280;40174;52.364;6.452;2024-02-21T12:46:32;100963.56;;;8.63;100.00
54262;BME280;40174;52.364;6.452;2024-02-21T12:48:59;100958.38;;;8.62;100.00
54262;BME280;40174;52.364;6.452;2024-02-21T12:51:25;100948.03;;;8.59;100.00